Home > Products > Valid Products > TAF

000
FTUS43 KGRB 290520
TAFGRB
TAF
KGRB 290520Z 2906/3006 18009KT P6SM SCT080 BKN150
     FM290900 19009KT P6SM SCT040 BKN080
     FM291400 22009KT P6SM -SHRA OVC030
     FM291900 24012KT P6SM VCSH BKN035
     FM292300 27010KT P6SM BKN040
     FM300000 27009KT P6SM SCT050
     FM300200 26007KT P6SM SCT200=



000
FTUS43 KGRB 282330
TAFGRB
TAF
KGRB 282330Z 2900/2924 19011G18KT P6SM SCT045 SCT070
     FM290100 19009KT P6SM SCT045 BKN070
      TEMPO 2901/2904 2SM TSRA BKN020CB OVC035
     FM290400 18007KT P6SM VCSH BKN045
     FM290600 20007KT P6SM BKN050
     FM291200 20008KT P6SM VCSH BKN008
     FM291500 22009KT P6SM -SHRA OVC012
     FM291800 24011KT P6SM -SHRA BKN025
     FM291900 24012KT P6SM VCSH BKN030
     FM292100 25012KT P6SM VCSH BKN035=



000
FTUS43 KGRB 281143 RRA
TAFGRB
TAF
KGRB 281143Z 2812/2912 17006KT 6SM BR VCSH SCT025 OVC070
     FM281600 19012KT P6SM BKN018 OVC050
     FM282100 19012KT P6SM SCT025 BKN050
      TEMPO 2823/2903 4SM TSRA BKN025CB
     FM290400 20005KT 6SM BR BKN035 BKN070
      TEMPO 2908/2912 4SM BR BKN007=



000
FTUS43 KGRB 280520
TAFGRB
TAF
KGRB 280520Z 2806/2906 15005KT 6SM BR SCT007 BKN070
      TEMPO 2806/2808 4SM -SHRA BR BKN007
     FM280800 16006KT 4SM BR SCT004 BKN010
      TEMPO 2808/2812 1SM -SHRA BR BKN004
     FM281200 16006KT 3SM BR OVC006
     FM281500 18010KT P6SM VCSH OVC008
     FM281700 19011KT P6SM VCSH BKN015
     FM281800 19011KT P6SM VCSH BKN025
     FM282000 19012KT P6SM VCSH BKN045
     FM290000 18009KT P6SM VCSH SCT040 BKN080=



000
FTUS43 KGRB 271847 AAA
TAFGRB
TAF AMD
KGRB 271847Z 2719/2818 03007KT 6SM BR VCSH SCT040 OVC080
     FM280100 14006KT 6SM BR VCSH SCT020 OVC035
     FM280300 15005KT 4SM BR VCSH BKN020 OVC030
      TEMPO 2803/2807 2SM -SHRA BR OVC020
     FM280700 15005KT 3SM BR VCSH OVC015
     FM281500 18010G16KT P6SM VCSH BKN030=



    US Dept of Commerce
    National Oceanic and Atmospheric Administration
    National Weather Service
    1325 East West Highway
    Silver Spring, MD 20910
    Page Author: NWS Internet Services Team
Disclaimer
Information Quality
Credits
Glossary
Privacy Policy
Freedom of Information Act (FOIA)
About Us
Career Opportunities